Time;durP1;ratioP1;P1;durP2;ratioP2;P2;SDS_P1;SDS_P2;PMS_P1;PMS_P2;Temp;Humidity;BMP_temperature;BMP_pressure;BME280_temperature;BME280_humidity;BME280_pressure;Samples;Min_cycle;Max_cycle;Signal;HPM_P1;HPM_P2
2020/12/26 00:01:15;;;;;;;6.33;3.33;;;;;;;1.60;78.14;100157.13;1785144;78;21197;-76
2020/12/26 00:03:43;;;;;;;6.67;3.45;;;;;;;1.59;77.94;100163.94;1793722;78;21120;-76
2020/12/26 00:06:17;;;;;;;6.05;3.52;;;;;;;1.57;77.75;100169.91;1792958;78;21161;-74
2020/12/26 00:08:45;;;;;;;5.08;3.10;;;;;;;1.55;77.60;100179.34;1788041;79;21193;-76
2020/12/26 00:11:15;;;;;;;5.30;3.08;;;;;;;1.55;77.49;100179.34;1777999;79;21342;-76
2020/12/26 00:13:43;;;;;;;5.75;3.25;;;;;;;1.57;77.39;100180.44;1783894;78;21104;-75
2020/12/26 00:16:12;;;;;;;5.90;3.15;;;;;;;1.57;77.30;100174.66;1787612;78;21653;-76
2020/12/26 00:18:42;;;;;;;6.08;3.20;;;;;;;1.59;77.27;100179.73;1795744;78;21232;-77
2020/12/26 00:21:15;;;;;;;5.35;3.10;;;;;;;1.59;77.09;100181.05;1787238;79;21569;-76
2020/12/26 00:23:44;;;;;;;5.83;3.30;;;;;;;1.60;77.02;100174.76;1787718;78;21327;-76
2020/12/26 00:26:15;;;;;;;5.42;2.90;;;;;;;1.62;76.83;100174.86;1786421;78;21373;-76
2020/12/26 00:28:43;;;;;;;5.45;2.83;;;;;;;1.63;76.67;100174.34;1784216;78;21109;-75
2020/12/26 00:31:15;;;;;;;5.15;2.70;;;;;;;1.63;76.40;100167.25;1783015;79;21105;-75
2020/12/26 00:33:43;;;;;;;3.55;1.57;;;;;;;1.64;76.08;100168.05;1761145;80;21907;-75
2020/12/26 00:36:11;;;;;;;5.62;2.65;;;;;;;1.63;75.80;100174.34;1779899;79;21624;-76
2020/12/26 00:38:38;;;;;;;4.35;2.60;;;;;;;1.60;75.66;100184.77;1744477;80;21651;-76
2020/12/26 00:41:06;;;;;;;4.17;2.27;;;;;;;1.57;75.27;100190.45;1783474;80;21110;-75
2020/12/26 00:43:34;;;;;;;4.83;2.37;;;;;;;1.56;75.08;100190.67;1720244;81;21472;-75
2020/12/26 00:46:02;;;;;;;4.58;2.40;;;;;;;1.55;75.00;100191.70;1746734;80;21164;-75
2020/12/26 00:48:30;;;;;;;5.25;2.17;;;;;;;1.56;74.93;100203.32;1793286;78;21296;-76
2020/12/26 00:50:58;;;;;;;4.42;2.35;;;;;;;1.56;74.81;100195.42;1787961;79;21189;-75
2020/12/26 00:53:26;;;;;;;4.28;2.10;;;;;;;1.55;74.64;100203.54;1787853;78;21169;-75
2020/12/26 00:55:54;;;;;;;5.00;2.55;;;;;;;1.55;74.56;100205.66;1788526;78;21184;-75
2020/12/26 00:58:22;;;;;;;5.33;2.12;;;;;;;1.55;74.37;100206.98;1787609;79;21157;-75
2020/12/26 01:00:50;;;;;;;3.87;1.92;;;;;;;1.52;74.07;100200.80;1806602;78;21589;-76
2020/12/26 01:03:30;;;;;;;4.00;1.97;;;;;;;1.57;74.10;100203.61;1802314;79;22922;-75
2020/12/26 01:05:58;;;;;;;4.67;2.20;;;;;;;1.51;73.82;100202.31;1768143;80;21588;-76
2020/12/26 01:08:26;;;;;;;4.58;2.05;;;;;;;1.50;73.73;100202.83;1777670;80;21435;-77
2020/12/26 01:10:54;;;;;;;4.92;2.37;;;;;;;1.50;73.64;100206.77;1811347;79;21204;-77
2020/12/26 01:13:22;;;;;;;4.65;2.45;;;;;;;1.52;73.61;100202.63;1780800;79;21176;-75
2020/12/26 01:15:52;;;;;;;5.67;2.22;;;;;;;1.52;73.47;100197.38;1774298;80;21115;-76
2020/12/26 01:18:19;;;;;;;5.53;2.70;;;;;;;1.53;73.45;100197.66;1776929;79;21393;-75
2020/12/26 01:20:49;;;;;;;5.20;2.52;;;;;;;1.50;73.36;100197.56;1767511;79;21386;-75
2020/12/26 01:23:16;;;;;;;4.95;2.50;;;;;;;1.47;73.36;100190.08;1774040;80;21212;-75
2020/12/26 01:25:44;;;;;;;5.50;2.70;;;;;;;1.47;73.38;100198.48;1779317;79;21242;-74
2020/12/26 01:28:12;;;;;;;4.95;2.47;;;;;;;1.47;73.41;100199.28;1797416;79;21207;-75
2020/12/26 01:30:40;;;;;;;6.17;2.70;;;;;;;1.47;73.52;100192.70;1776002;80;21177;-75
2020/12/26 01:33:07;;;;;;;4.70;2.22;;;;;;;1.46;73.55;100188.47;1794462;79;21416;-74
2020/12/26 01:35:36;;;;;;;4.70;2.30;;;;;;;1.46;73.65;100193.73;1771638;80;21209;-77
2020/12/26 01:38:03;;;;;;;5.05;2.12;;;;;;;1.45;73.75;100188.17;1777288;80;21151;-75
2020/12/26 01:40:31;;;;;;;5.60;2.37;;;;;;;1.45;73.88;100190.80;1763071;80;21153;-76
2020/12/26 01:42:59;;;;;;;5.00;2.75;;;;;;;1.45;73.85;100189.97;1760534;80;21128;-76
2020/12/26 01:45:27;;;;;;;4.78;2.55;;;;;;;1.43;73.91;100195.45;1763021;80;21204;-75
2020/12/26 01:47:54;;;;;;;4.70;2.58;;;;;;;1.44;73.97;100198.38;1785035;79;21191;-76
2020/12/26 01:50:22;;;;;;;4.97;2.80;;;;;;;1.42;74.01;100195.16;1807278;79;21540;-76
2020/12/26 01:52:51;;;;;;;4.55;2.52;;;;;;;1.43;74.08;100193.34;1775592;79;21164;-76
2020/12/26 01:55:19;;;;;;;5.47;2.90;;;;;;;1.43;73.99;100191.51;1772400;80;21196;-76
2020/12/26 01:57:52;;;;;;;5.55;3.00;;;;;;;1.44;73.90;100187.85;1779294;79;21375;-76
2020/12/26 02:00:20;;;;;;;5.70;2.98;;;;;;;1.43;73.85;100194.14;1769606;80;21133;-76
2020/12/26 02:02:50;;;;;;;5.37;2.90;;;;;;;1.42;73.82;100193.84;1769638;79;21602;-77
2020/12/26 02:05:19;;;;;;;5.87;2.98;;;;;;;1.42;73.81;100195.67;1750054;80;21641;-76
2020/12/26 02:07:47;;;;;;;6.03;2.80;;;;;;;1.39;73.67;100195.57;1738784;80;21730;-76
2020/12/26 02:10:14;;;;;;;5.62;3.17;;;;;;;1.38;73.67;100201.34;1749522;80;21470;-76
2020/12/26 02:12:43;;;;;;;6.12;3.02;;;;;;;1.36;73.69;100197.30;1745208;81;21185;-76
2020/12/26 02:15:14;;;;;;;5.10;2.85;;;;;;;1.38;73.74;100200.52;1737696;80;21162;-76
2020/12/26 02:17:44;;;;;;;5.92;2.90;;;;;;;1.37;73.72;100195.76;1773659;79;21195;-76
2020/12/26 02:20:11;;;;;;;5.30;3.10;;;;;;;1.38;73.69;100205.77;1772525;80;21194;-76
2020/12/26 02:22:39;;;;;;;5.00;2.90;;;;;;;1.38;73.69;100207.92;1750870;80;21694;-77
2020/12/26 02:25:09;;;;;;;5.70;2.90;;;;;;;1.38;73.70;100211.04;1717325;80;21256;-75
2020/12/26 02:27:36;;;;;;;4.85;2.55;;;;;;;1.38;73.69;100219.77;1743570;80;21256;-75
2020/12/26 02:30:04;;;;;;;5.00;2.72;;;;;;;1.39;73.63;100216.11;1771374;79;21197;-76
2020/12/26 02:32:31;;;;;;;5.25;2.60;;;;;;;1.39;73.58;100220.57;1773920;79;21161;-76
2020/12/26 02:35:01;;;;;;;4.78;2.60;;;;;;;1.39;73.59;100221.89;1769834;79;21464;-76
2020/12/26 02:37:28;;;;;;;5.37;2.98;;;;;;;1.40;73.55;100223.50;1767369;79;21711;-76
2020/12/26 02:39:56;;;;;;;6.10;2.65;;;;;;;1.39;73.45;100222.69;1781400;79;21161;-77
2020/12/26 02:42:25;;;;;;;5.37;2.72;;;;;;;1.39;73.45;100225.84;1770267;79;21506;-75
2020/12/26 02:44:52;;;;;;;5.08;2.70;;;;;;;1.42;73.43;100229.38;1779040;79;21184;-76
2020/12/26 02:47:20;;;;;;;5.12;2.90;;;;;;;1.43;73.42;100225.72;1766522;79;21206;-76
2020/12/26 02:49:48;;;;;;;7.90;3.12;;;;;;;1.44;73.37;100231.27;1755707;79;21134;-76
2020/12/26 02:52:16;;;;;;;4.65;2.70;;;;;;;1.44;73.43;100222.06;1761372;79;21178;-76
2020/12/26 02:54:43;;;;;;;6.22;3.67;;;;;;;1.45;73.39;100219.75;1754688;80;21154;-75
2020/12/26 02:57:11;;;;;;;6.05;3.42;;;;;;;1.47;73.42;100219.54;1770256;79;21186;-76
2020/12/26 02:59:38;;;;;;;5.08;2.80;;;;;;;1.49;73.34;100223.59;1774694;80;21366;-76
2020/12/26 03:02:06;;;;;;;5.22;2.90;;;;;;;1.51;73.33;100224.17;1733974;80;21255;-77
2020/12/26 03:04:34;;;;;;;5.40;2.70;;;;;;;1.51;73.11;100223.37;1723266;82;21178;-77
2020/12/26 03:07:02;;;;;;;4.50;2.10;;;;;;;1.52;72.89;100225.81;1744942;81;21138;-75
2020/12/26 03:09:30;;;;;;;4.22;2.30;;;;;;;1.53;72.74;100228.73;1776353;79;21153;-75
2020/12/26 03:11:58;;;;;;;4.40;2.37;;;;;;;1.56;72.73;100233.59;1773114;80;22418;-75
2020/12/26 03:14:27;;;;;;;4.25;2.47;;;;;;;1.57;72.63;100235.71;1753478;80;21621;-76
2020/12/26 03:16:54;;;;;;;4.05;1.98;;;;;;;1.56;72.31;100236.22;1747400;80;21547;-75
2020/12/26 03:19:22;;;;;;;6.55;3.10;;;;;;;1.54;72.29;100244.02;1741901;80;21174;-76
2020/12/26 03:21:51;;;;;;;7.35;5.40;;;;;;;1.53;72.28;100246.36;1776529;79;21133;-74
2020/12/26 03:24:19;;;;;;;6.00;3.95;;;;;;;1.50;72.21;100249.39;1768993;79;22226;-76
2020/12/26 03:26:46;;;;;;;5.45;3.12;;;;;;;1.44;72.19;100243.63;1765655;79;21689;-75
2020/12/26 03:29:14;;;;;;;4.40;2.60;;;;;;;1.42;72.17;100238.59;1775914;80;21602;-75
2020/12/26 03:31:42;;;;;;;5.72;3.00;;;;;;;1.43;72.25;100236.76;1758292;80;21168;-75
2020/12/26 03:34:09;;;;;;;5.50;2.92;;;;;;;1.44;72.29;100239.69;1752238;80;21184;-75
2020/12/26 03:36:38;;;;;;;5.33;3.17;;;;;;;1.44;72.21;100247.06;1741824;80;21368;-75
2020/12/26 03:39:06;;;;;;;5.50;3.12;;;;;;;1.44;72.04;100242.31;1773101;80;21443;-76
2020/12/26 03:41:33;;;;;;;5.40;2.85;;;;;;;1.45;71.83;100241.30;1771593;79;21146;-76
2020/12/26 03:44:01;;;;;;;5.75;3.15;;;;;;;1.47;71.58;100240.08;1767878;79;21714;-76
2020/12/26 03:46:29;;;;;;;4.30;2.40;;;;;;;1.49;71.41;100236.75;1769738;79;21774;-76
2020/12/26 03:48:57;;;;;;;4.60;2.47;;;;;;;1.51;71.27;100249.17;1780342;79;21408;-76
2020/12/26 03:51:26;;;;;;;4.85;2.58;;;;;;;1.49;71.15;100245.96;1775123;79;21184;-76
2020/12/26 03:53:54;;;;;;;4.17;2.40;;;;;;;1.51;71.13;100243.91;1759676;79;21639;-76
2020/12/26 03:56:21;;;;;;;4.17;2.30;;;;;;;1.53;71.11;100245.84;1756955;80;22317;-76
2020/12/26 03:58:49;;;;;;;4.37;2.67;;;;;;;1.53;71.00;100245.84;1758896;79;21163;-77
2020/12/26 04:01:17;;;;;;;4.40;2.67;;;;;;;1.51;70.89;100247.86;1759928;81;21396;-75
2020/12/26 04:03:44;;;;;;;6.33;3.40;;;;;;;1.49;70.59;100243.84;1755170;81;21163;-76
2020/12/26 04:06:12;;;;;;;6.40;3.58;;;;;;;1.47;70.57;100251.12;1761385;79;21165;-76
2020/12/26 04:08:39;;;;;;;6.95;3.67;;;;;;;1.43;70.57;100242.02;1754593;79;21751;-76
2020/12/26 04:11:07;;;;;;;5.67;3.80;;;;;;;1.40;70.63;100241.92;1758056;79;22239;-75
2020/12/26 04:13:35;;;;;;;7.28;4.08;;;;;;;1.34;70.63;100246.16;1754413;79;21424;-76
2020/12/26 04:16:03;;;;;;;5.97;3.55;;;;;;;1.30;70.73;100253.36;1759662;81;21174;-75
2020/12/26 04:18:31;;;;;;;6.25;3.30;;;;;;;1.23;70.85;100253.37;1756297;79;21181;-77
2020/12/26 04:20:58;;;;;;;4.95;2.72;;;;;;;1.13;71.01;100260.86;1754206;81;21214;-77
2020/12/26 04:23:27;;;;;;;4.30;2.12;;;;;;;1.04;71.22;100264.18;1751038;79;21692;-76
2020/12/26 04:25:54;;;;;;;4.55;2.20;;;;;;;0.95;71.44;100266.70;1751961;81;21612;-76
2020/12/26 04:28:24;;;;;;;5.15;2.58;;;;;;;0.86;71.61;100262.16;1747869;79;21647;-74
2020/12/26 04:30:52;;;;;;;4.70;2.33;;;;;;;0.81;71.79;100264.56;1759910;79;21657;-75
2020/12/26 04:33:20;;;;;;;4.37;2.55;;;;;;;0.75;71.94;100264.04;1758975;80;21736;-76
2020/12/26 04:35:48;;;;;;;4.05;2.17;;;;;;;0.70;72.03;100275.16;1755411;79;21584;-76
2020/12/26 04:38:15;;;;;;;4.53;2.80;;;;;;;0.66;72.19;100277.09;1757361;79;21513;-75
2020/12/26 04:40:45;;;;;;;4.20;2.47;;;;;;;0.60;72.29;100278.68;1761055;79;21189;-76
2020/12/26 04:43:13;;;;;;;4.12;2.47;;;;;;;0.55;72.41;100272.39;1760382;79;21197;-75
2020/12/26 04:45:41;;;;;;;5.20;3.10;;;;;;;0.49;72.57;100287.12;1760084;80;21620;-75
2020/12/26 04:48:13;;;;;;;5.30;2.75;;;;;;;0.45;72.76;100287.22;1757692;80;21157;-75
2020/12/26 04:50:48;;;;;;;5.33;2.75;;;;;;;0.43;72.90;100291.87;1744696;81;22298;-75
2020/12/26 04:53:18;;;;;;;5.67;2.45;;;;;;;0.43;73.04;100301.07;1759323;81;21193;-76
2020/12/26 04:55:48;;;;;;;5.03;2.95;;;;;;;0.41;73.17;100297.81;1774910;80;21691;-75
2020/12/26 04:58:19;;;;;;;5.58;2.60;;;;;;;0.40;73.22;100304.09;1742849;80;21215;-76
2020/12/26 05:00:47;;;;;;;5.50;2.65;;;;;;;0.39;73.27;100311.13;1747164;80;21114;-76
2020/12/26 05:03:19;;;;;;;4.60;2.40;;;;;;;0.41;73.31;100317.02;1737505;82;21613;-75
2020/12/26 05:05:47;;;;;;;6.33;2.90;;;;;;;0.44;73.36;100318.45;1748815;82;21198;-75
2020/12/26 05:08:15;;;;;;;5.22;3.12;;;;;;;0.46;73.44;100312.47;1743459;80;21154;-75
2020/12/26 05:10:43;;;;;;;4.80;2.92;;;;;;;0.51;73.43;100313.22;1740315;80;21624;-75
2020/12/26 05:13:12;;;;;;;5.75;2.87;;;;;;;0.54;73.30;100320.70;1745961;80;21087;-76
2020/12/26 05:15:40;;;;;;;4.87;2.75;;;;;;;0.59;73.27;100324.38;1750037;80;21263;-76
2020/12/26 05:18:08;;;;;;;4.97;2.87;;;;;;;0.63;73.18;100319.02;1751633;80;21124;-75
2020/12/26 05:20:36;;;;;;;5.28;2.90;;;;;;;0.67;73.11;100317.62;1747747;80;21112;-76
2020/12/26 05:23:12;;;;;;;5.83;2.95;;;;;;;0.72;72.97;100321.46;1769878;79;21146;-74
2020/12/26 05:25:48;;;;;;;5.37;3.20;;;;;;;0.75;72.90;100317.93;1771244;79;21062;-75
2020/12/26 05:28:19;;;;;;;4.80;2.92;;;;;;;0.78;72.82;100320.16;1772595;79;21369;-75
2020/12/26 05:30:53;;;;;;;6.20;3.00;;;;;;;0.86;72.67;100324.45;1805692;78;22381;-76
2020/12/26 05:33:21;;;;;;;5.83;3.35;;;;;;;0.81;72.58;100324.22;1771193;80;21132;-75
2020/12/26 05:35:51;;;;;;;5.53;3.33;;;;;;;0.84;72.49;100330.41;1782189;78;21381;-76
2020/12/26 05:38:26;;;;;;;5.90;3.87;;;;;;;0.85;72.41;100333.33;1767067;80;21192;-75
2020/12/26 05:40:59;;;;;;;5.92;3.50;;;;;;;0.81;72.36;100328.17;1776906;80;21647;-75
2020/12/26 05:43:32;;;;;;;6.90;4.67;;;;;;;0.77;72.34;100340.90;1768837;78;21153;-75
2020/12/26 05:45:59;;;;;;;7.30;4.30;;;;;;;0.69;72.29;100343.21;1772976;80;21132;-75
2020/12/26 05:48:28;;;;;;;8.75;4.65;;;;;;;0.63;72.26;100335.30;1802538;78;21363;-75
2020/12/26 05:50:59;;;;;;;7.65;4.62;;;;;;;0.58;72.23;100338.50;1773582;80;21195;-76
2020/12/26 05:53:28;;;;;;;6.33;4.25;;;;;;;0.55;72.23;100349.41;1771734;80;21608;-76
2020/12/26 05:55:55;;;;;;;6.92;4.40;;;;;;;0.49;72.26;100355.44;1802921;78;21099;-76
2020/12/26 05:58:25;;;;;;;8.38;5.22;;;;;;;0.45;72.31;100360.78;1775252;79;21203;-76
2020/12/26 06:00:59;;;;;;;7.03;4.40;;;;;;;0.40;72.40;100372.41;1781737;78;22686;-76
2020/12/26 06:03:33;;;;;;;10.25;6.70;;;;;;;0.33;72.49;100371.53;1792855;78;21190;-76
2020/12/26 06:06:05;;;;;;;11.25;6.37;;;;;;;0.27;72.58;100373.65;1776703;80;21060;-76
2020/12/26 06:08:33;;;;;;;10.60;7.10;;;;;;;0.18;72.70;100377.73;1779627;79;21038;-76
2020/12/26 06:11:03;;;;;;;12.23;6.60;;;;;;;0.11;72.81;100379.50;1785354;79;21540;-76
2020/12/26 06:13:33;;;;;;;11.60;7.00;;;;;;;0.05;72.92;100376.33;1799160;79;21403;-76
2020/12/26 06:16:13;;;;;;;11.48;6.80;;;;;;;-0.03;73.06;100381.23;1797426;79;21485;-77
2020/12/26 06:18:44;;;;;;;8.90;5.50;;;;;;;-0.09;73.23;100384.62;1788751;78;21153;-79
2020/12/26 06:21:11;;;;;;;8.78;5.17;;;;;;;-0.13;73.41;100378.62;1793173;79;21191;-76
2020/12/26 06:23:39;;;;;;;8.98;5.30;;;;;;;-0.17;73.54;100387.38;1774122;80;21174;-76
2020/12/26 06:26:08;;;;;;;9.30;5.97;;;;;;;-0.22;73.65;100391.09;1775470;80;21444;-75
2020/12/26 06:28:36;;;;;;;6.92;4.60;;;;;;;-0.30;73.83;100385.46;1809527;79;21105;-75
2020/12/26 06:31:06;;;;;;;7.90;4.53;;;;;;;-0.34;74.02;100392.09;1785068;79;21180;-76
2020/12/26 06:33:43;;;;;;;6.33;3.58;;;;;;;-0.40;74.17;100397.29;1763306;80;21650;-76
2020/12/26 06:36:12;;;;;;;6.25;3.85;;;;;;;-0.45;74.34;100403.62;1779626;78;21061;-77
2020/12/26 06:38:40;;;;;;;6.80;4.00;;;;;;;-0.51;74.52;100395.98;1776637;79;21427;-76
2020/12/26 06:41:16;;;;;;;6.08;3.50;;;;;;;-0.56;74.67;100397.88;1781695;78;21108;-76
2020/12/26 06:43:58;;;;;;;6.03;3.60;;;;;;;-0.59;74.89;100400.04;1755823;79;21177;-77
2020/12/26 06:46:34;;;;;;;6.00;3.72;;;;;;;-0.64;75.13;100410.30;1775252;78;21045;-77
2020/12/26 06:49:01;;;;;;;7.37;3.75;;;;;;;-0.66;75.32;100427.52;1786430;78;21101;-77
2020/12/26 06:51:33;;;;;;;6.03;3.80;;;;;;;-0.70;75.53;100435.45;1750371;80;21337;-75
2020/12/26 06:54:03;;;;;;;7.85;4.37;;;;;;;-0.76;75.74;100438.34;1780097;78;21247;-77
2020/12/26 06:56:38;;;;;;;8.05;4.80;;;;;;;-0.80;76.04;100433.13;1784295;78;21126;-76
2020/12/26 06:59:07;;;;;;;6.75;4.65;;;;;;;-0.81;76.29;100438.06;1757606;80;21693;-76
2020/12/26 07:01:46;;;;;;;7.65;4.40;;;;;;;-0.82;76.53;100441.70;1775478;78;21618;-75
2020/12/26 07:04:21;;;;;;;7.25;4.45;;;;;;;-0.81;76.77;100436.76;1776442;78;21297;-76
2020/12/26 07:06:54;;;;;;;7.42;4.42;;;;;;;-0.75;77.02;100437.33;1781379;78;21195;-76
2020/12/26 07:09:44;;;;;;;5.60;3.95;;;;;;;-0.68;77.22;100441.34;1779920;79;21141;-77
2020/12/26 07:12:13;;;;;;;6.10;3.65;;;;;;;-0.61;77.40;100442.72;1779877;78;21175;-77
2020/12/26 07:14:45;;;;;;;7.37;3.92;;;;;;;-0.52;77.62;100446.84;1783309;78;21180;-76
2020/12/26 07:17:22;;;;;;;6.25;4.05;;;;;;;-0.43;77.74;100453.57;1781058;79;21291;-77
2020/12/26 07:19:52;;;;;;;7.58;4.08;;;;;;;-0.37;77.83;100460.70;1781255;80;21130;-76
2020/12/26 07:22:26;;;;;;;6.62;3.72;;;;;;;-0.30;77.96;100453.70;1779035;78;21171;-76
2020/12/26 07:25:06;;;;;;;6.75;3.58;;;;;;;-0.21;78.03;100449.64;1783937;78;21814;-76
2020/12/26 07:27:39;;;;;;;6.62;4.03;;;;;;;-0.09;78.08;100453.39;1774523;80;21164;-77
2020/12/26 07:30:14;;;;;;;6.33;4.20;;;;;;;0.02;78.08;100452.86;1781866;78;21211;-77
2020/12/26 07:32:49;;;;;;;7.10;4.58;;;;;;;0.08;78.02;100445.55;1770273;79;21188;-77
2020/12/26 07:35:25;;;;;;;8.78;5.80;;;;;;;0.14;77.93;100446.09;1747259;80;21625;-77
2020/12/26 07:38:12;;;;;;;8.53;5.65;;;;;;;0.21;77.91;100444.83;1756948;80;21074;-77
2020/12/26 07:40:47;;;;;;;9.10;6.08;;;;;;;0.31;77.84;100450.55;1781823;78;21184;-76
2020/12/26 07:43:17;;;;;;;8.95;5.67;;;;;;;0.41;77.68;100458.09;1741566;80;21376;-76
2020/12/26 07:45:48;;;;;;;9.33;5.22;;;;;;;0.52;77.49;100454.91;1757161;80;21215;-77
2020/12/26 07:48:17;;;;;;;8.50;4.95;;;;;;;0.60;77.25;100456.09;1754581;80;21220;-77
2020/12/26 07:50:45;;;;;;;7.87;5.12;;;;;;;0.66;76.80;100458.45;1750203;80;21146;-76
2020/12/26 07:53:14;;;;;;;7.28;4.50;;;;;;;0.69;76.63;100464.13;1752800;80;21206;-76
2020/12/26 07:55:42;;;;;;;7.80;4.85;;;;;;;0.77;76.44;100467.59;1742146;80;21805;-77
2020/12/26 07:58:13;;;;;;;8.38;4.97;;;;;;;0.87;76.25;100470.68;1747094;80;21278;-77
2020/12/26 08:00:43;;;;;;;8.15;5.08;;;;;;;0.96;76.12;100466.88;1756523;80;21083;-75
2020/12/26 08:03:12;;;;;;;7.53;4.70;;;;;;;1.07;75.87;100468.13;1757149;80;21140;-76
2020/12/26 08:05:49;;;;;;;9.33;5.10;;;;;;;1.16;75.49;100467.77;1753219;80;21178;-76
2020/12/26 08:08:21;;;;;;;7.65;4.25;;;;;;;1.26;75.26;100464.77;1753612;80;21370;-77
2020/12/26 08:10:57;;;;;;;7.03;4.08;;;;;;;1.38;74.97;100468.93;1752285;80;21231;-76
2020/12/26 08:13:27;;;;;;;7.03;3.92;;;;;;;1.48;74.49;100469.86;1751921;80;21167;-76
2020/12/26 08:16:03;;;;;;;5.80;3.42;;;;;;;1.57;74.19;100472.11;1754480;80;21191;-76
2020/12/26 08:18:32;;;;;;;6.42;3.50;;;;;;;1.68;73.73;100475.16;1752442;80;21167;-76
2020/12/26 08:21:01;;;;;;;5.90;3.70;;;;;;;1.74;73.51;100475.69;1728244;80;22266;-77
2020/12/26 08:23:33;;;;;;;5.25;3.35;;;;;;;1.81;73.20;100480.45;1753468;80;21619;-76
2020/12/26 08:26:01;;;;;;;6.33;3.40;;;;;;;1.87;73.19;100471.75;1751245;80;21185;-75
2020/12/26 08:28:30;;;;;;;7.00;3.42;;;;;;;1.92;73.08;100475.91;1750866;80;21203;-75
2020/12/26 08:31:02;;;;;;;6.05;3.58;;;;;;;1.99;72.82;100491.72;1752020;80;21187;-76
2020/12/26 08:33:40;;;;;;;6.42;3.50;;;;;;;1.98;72.69;100484.33;1762478;79;22291;-76
2020/12/26 08:36:28;;;;;;;7.22;4.10;;;;;;;1.97;72.68;100482.69;1759052;79;21207;-76
2020/12/26 08:39:00;;;;;;;8.00;4.30;;;;;;;2.00;72.79;100474.89;1760054;79;21242;-76
2020/12/26 08:41:28;;;;;;;6.62;3.60;;;;;;;2.03;72.76;100471.34;1765077;79;21179;-76
2020/12/26 08:43:57;;;;;;;6.65;3.90;;;;;;;2.08;72.73;100468.93;1735725;81;21627;-76
2020/12/26 08:46:28;;;;;;;6.62;4.00;;;;;;;2.16;72.80;100466.59;1777924;79;21628;-76
2020/12/26 08:48:56;;;;;;;8.03;4.30;;;;;;;2.25;72.67;100463.24;1765465;79;21213;-76
2020/12/26 08:51:25;;;;;;;6.67;4.10;;;;;;;2.26;72.55;100453.80;1764517;81;21186;-76
2020/12/26 08:53:56;;;;;;;7.60;4.53;;;;;;;2.29;72.45;100457.34;1767934;80;21175;-77
2020/12/26 08:56:37;;;;;;;8.53;4.78;;;;;;;2.32;72.46;100448.23;1764327;79;21610;-75
2020/12/26 08:59:05;;;;;;;7.65;4.45;;;;;;;2.37;72.43;100448.92;1765902;79;21374;-76
2020/12/26 09:01:34;;;;;;;7.72;4.70;;;;;;;2.41;72.30;100432.50;1764577;79;21203;-75
2020/12/26 09:04:02;;;;;;;8.30;4.90;;;;;;;2.42;72.15;100439.91;1763359;80;21156;-75
2020/12/26 09:06:38;;;;;;;8.58;5.22;;;;;;;2.43;72.17;100440.19;1758324;79;21143;-76
2020/12/26 09:09:20;;;;;;;9.65;4.97;;;;;;;2.46;72.05;100428.73;1766079;79;21076;-75
2020/12/26 09:12:05;;;;;;;9.03;5.08;;;;;;;2.51;72.02;100426.81;1766750;79;21540;-76
2020/12/26 09:14:32;;;;;;;9.15;4.78;;;;;;;2.54;71.92;100421.13;1761713;79;21613;-76
2020/12/26 09:17:02;;;;;;;9.90;5.22;;;;;;;2.56;71.85;100427.78;1764273;81;21128;-77
2020/12/26 09:19:45;;;;;;;6.95;4.30;;;;;;;2.56;71.62;100442.28;1766777;81;21145;-76
2020/12/26 09:22:12;;;;;;;7.15;4.20;;;;;;;2.55;71.68;100451.22;1764870;81;21084;-76
2020/12/26 09:24:40;;;;;;;7.03;4.53;;;;;;;2.54;71.84;100449.61;1765642;80;21212;-78
2020/12/26 09:27:19;;;;;;;8.40;5.10;;;;;;;2.61;72.03;100452.23;1740381;80;21172;-76
2020/12/26 09:29:51;;;;;;;7.90;4.72;;;;;;;2.68;72.05;100455.66;1765486;79;21621;-77
2020/12/26 09:32:20;;;;;;;8.08;4.47;;;;;;;2.76;71.81;100456.77;1766281;81;21200;-76
2020/12/26 09:34:48;;;;;;;7.85;4.83;;;;;;;2.74;71.53;100460.62;1764613;79;21151;-78
2020/12/26 09:37:17;;;;;;;7.12;4.20;;;;;;;2.70;71.66;100480.00;1764547;79;21359;-76
2020/12/26 09:39:46;;;;;;;7.78;4.53;;;;;;;2.72;71.71;100480.59;1751899;79;21775;-76
2020/12/26 09:42:14;;;;;;;9.00;5.00;;;;;;;2.75;71.62;100492.56;1742494;79;21127;-76
2020/12/26 09:44:42;;;;;;;7.03;4.33;;;;;;;2.69;71.61;100484.15;1765060;79;21179;-76
2020/12/26 09:47:10;;;;;;;7.17;4.60;;;;;;;2.70;71.78;100481.80;1761249;79;21119;-76
2020/12/26 09:49:37;;;;;;;7.15;3.98;;;;;;;2.69;71.78;100481.52;1765579;79;21801;-76
2020/12/26 09:52:07;;;;;;;8.08;4.40;;;;;;;2.70;71.82;100494.98;1765974;79;21553;-77
2020/12/26 09:54:34;;;;;;;6.55;3.87;;;;;;;2.70;71.84;100487.91;1761965;79;21190;-76
2020/12/26 09:57:02;;;;;;;6.10;3.92;;;;;;;2.73;71.93;100486.67;1764944;79;21178;-76
2020/12/26 09:59:29;;;;;;;9.55;4.03;;;;;;;2.75;71.95;100475.41;1745608;81;21138;-77
2020/12/26 10:01:57;;;;;;;6.22;3.87;;;;;;;2.81;72.05;100466.67;1773668;80;21822;-76
2020/12/26 10:04:25;;;;;;;7.42;4.53;;;;;;;2.89;71.90;100474.34;1764950;79;21168;-77
2020/12/26 10:06:53;;;;;;;8.28;3.95;;;;;;;2.92;71.87;100483.67;1772378;79;21143;-77
2020/12/26 10:09:21;;;;;;;7.37;4.58;;;;;;;2.96;71.90;100492.31;1761095;81;21213;-75
2020/12/26 10:11:50;;;;;;;6.95;4.50;;;;;;;2.98;71.68;100498.16;1745753;81;21156;-77
2020/12/26 10:14:17;;;;;;;6.97;4.30;;;;;;;2.98;71.68;100496.04;1761117;79;21403;-77
2020/12/26 10:16:46;;;;;;;9.48;4.60;;;;;;;3.01;71.61;100491.67;1756989;80;21168;-76
2020/12/26 10:19:13;;;;;;;8.38;4.55;;;;;;;3.05;71.56;100496.83;1770787;79;21135;-75
2020/12/26 10:21:41;;;;;;;7.28;4.55;;;;;;;3.12;71.50;100495.48;1769198;81;21652;-74
2020/12/26 10:24:09;;;;;;;7.08;4.12;;;;;;;3.16;71.41;100490.08;1784033;78;21173;-75
2020/12/26 10:26:37;;;;;;;8.90;4.30;;;;;;;3.18;71.32;100495.45;1744221;81;21219;-76
2020/12/26 10:29:05;;;;;;;7.30;4.00;;;;;;;3.18;71.22;100509.16;1740528;80;21160;-76
2020/12/26 10:31:34;;;;;;;7.92;4.90;;;;;;;3.09;71.15;100513.05;1816626;78;21151;-76
2020/12/26 10:34:02;;;;;;;10.05;4.87;;;;;;;3.00;71.12;100498.78;1782453;78;21197;-76
2020/12/26 10:36:30;;;;;;;10.00;5.15;;;;;;;2.92;71.36;100504.27;1781836;78;21128;-76
2020/12/26 10:38:57;;;;;;;8.83;5.12;;;;;;;2.90;71.57;100509.48;1768948;80;22099;-77
2020/12/26 10:41:25;;;;;;;10.23;5.30;;;;;;;2.85;71.70;100518.50;1756898;80;21196;-75
2020/12/26 10:43:52;;;;;;;9.33;5.15;;;;;;;2.81;71.86;100520.75;1755972;80;21152;-75
2020/12/26 10:46:21;;;;;;;8.95;4.55;;;;;;;2.78;72.07;100529.88;1756721;80;21177;-75
2020/12/26 10:48:49;;;;;;;8.18;5.08;;;;;;;2.80;72.30;100538.41;1756163;81;21649;-75
2020/12/26 10:51:17;;;;;;;10.90;5.75;;;;;;;2.78;72.32;100536.47;1784248;79;21353;-77
2020/12/26 10:53:44;;;;;;;11.05;5.90;;;;;;;2.71;72.44;100550.70;1746694;81;21455;-76
2020/12/26 10:56:13;;;;;;;9.85;6.30;;;;;;;2.63;72.67;100545.11;1762169;79;21179;-75
2020/12/26 10:58:40;;;;;;;9.38;6.17;;;;;;;2.61;72.91;100543.20;1764201;79;21175;-77
2020/12/26 11:01:08;;;;;;;9.78;5.78;;;;;;;2.59;73.12;100546.54;1761908;81;21171;-76
2020/12/26 11:03:36;;;;;;;9.43;5.45;;;;;;;2.56;73.30;100554.86;1769044;79;21644;-76
2020/12/26 11:06:04;;;;;;;9.88;6.10;;;;;;;2.52;73.56;100557.09;1766828;79;21194;-76
2020/12/26 11:08:31;;;;;;;9.68;5.40;;;;;;;2.51;73.71;100557.31;1767690;79;21215;-74
2020/12/26 11:10:59;;;;;;;10.78;5.90;;;;;;;2.51;73.86;100548.89;1776724;80;21199;-75
2020/12/26 11:13:27;;;;;;;14.15;7.37;;;;;;;2.53;73.92;100549.51;1764942;79;22311;-74
2020/12/26 11:15:55;;;;;;;18.48;9.23;;;;;;;2.56;74.02;100545.11;1766762;79;21213;-76
2020/12/26 11:18:23;;;;;;;11.30;6.78;;;;;;;2.60;73.96;100541.59;1764169;79;21136;-76
2020/12/26 11:20:52;;;;;;;10.70;6.08;;;;;;;2.63;73.98;100538.52;1764267;79;21579;-76
2020/12/26 11:23:20;;;;;;;10.70;6.37;;;;;;;2.63;73.98;100530.60;1769778;81;21603;-76
2020/12/26 11:25:47;;;;;;;10.13;6.22;;;;;;;2.62;74.01;100528.19;1764064;79;21806;-76
2020/12/26 11:28:17;;;;;;;10.60;7.10;;;;;;;2.61;74.09;100537.12;1767081;80;21797;-75
2020/12/26 11:30:44;;;;;;;11.65;7.80;;;;;;;2.62;74.14;100540.05;1763902;79;21378;-74
2020/12/26 11:33:12;;;;;;;8.90;6.17;;;;;;;2.59;74.15;100539.44;1811562;78;21194;-75
2020/12/26 11:35:40;;;;;;;10.90;7.47;;;;;;;2.58;74.18;100543.09;1729811;81;21143;-75
2020/12/26 11:38:08;;;;;;;11.57;7.65;;;;;;;2.52;74.23;100531.23;1767360;79;21183;-75
2020/12/26 11:40:35;;;;;;;11.68;7.45;;;;;;;2.51;74.35;100520.40;1743143;81;21394;-75
2020/12/26 11:43:05;;;;;;;10.23;6.47;;;;;;;2.54;74.39;100523.95;1769783;81;21172;-76